sensor_id;sensor_type;location;lat;lon;timestamp;pressure;altitude;pressure_sealevel;temperature;humidity
15604;BME280;7902;49.042;9.092;2023-07-20T00:01:47;98898.28;;;25.25;37.94
15604;BME280;7902;49.042;9.092;2023-07-20T00:04:13;98898.94;;;25.14;37.94
15604;BME280;7902;49.042;9.092;2023-07-20T00:06:40;98909.66;;;25.20;38.21
15604;BME280;7902;49.042;9.092;2023-07-20T00:09:09;98903.25;;;25.28;38.01
15604;BME280;7902;49.042;9.092;2023-07-20T00:11:36;98904.31;;;25.14;38.30
15604;BME280;7902;49.042;9.092;2023-07-20T00:14:04;98905.94;;;25.15;38.27
15604;BME280;7902;49.042;9.092;2023-07-20T00:16:30;98905.97;;;25.02;38.57
15604;BME280;7902;49.042;9.092;2023-07-20T00:18:56;98904.50;;;25.06;38.68
15604;BME280;7902;49.042;9.092;2023-07-20T00:21:22;98901.03;;;24.99;38.64
15604;BME280;7902;49.042;9.092;2023-07-20T00:23:48;98901.63;;;25.07;38.46
15604;BME280;7902;49.042;9.092;2023-07-20T00:26:14;98902.25;;;25.03;38.58
15604;BME280;7902;49.042;9.092;2023-07-20T00:28:40;98902.88;;;24.85;38.74
15604;BME280;7902;49.042;9.092;2023-07-20T00:31:05;98894.41;;;24.88;38.66
15604;BME280;7902;49.042;9.092;2023-07-20T00:33:31;98907.81;;;24.75;38.72
15604;BME280;7902;49.042;9.092;2023-07-20T00:35:57;98907.00;;;24.74;38.80
15604;BME280;7902;49.042;9.092;2023-07-20T00:38:23;98909.91;;;24.86;38.75
15604;BME280;7902;49.042;9.092;2023-07-20T00:40:49;98902.03;;;24.78;39.00
15604;BME280;7902;49.042;9.092;2023-07-20T00:43:15;98904.72;;;24.78;38.81
15604;BME280;7902;49.042;9.092;2023-07-20T00:45:42;98900.81;;;24.80;38.84
15604;BME280;7902;49.042;9.092;2023-07-20T00:48:08;98898.31;;;24.85;39.36
15604;BME280;7902;49.042;9.092;2023-07-20T00:50:34;98898.94;;;24.74;38.75
15604;BME280;7902;49.042;9.092;2023-07-20T00:53:02;98899.75;;;24.68;39.29
15604;BME280;7902;49.042;9.092;2023-07-20T00:55:31;98909.25;;;24.64;39.50
15604;BME280;7902;49.042;9.092;2023-07-20T00:57:58;98907.59;;;24.70;39.12
15604;BME280;7902;49.042;9.092;2023-07-20T01:00:24;98912.34;;;24.55;39.52
15604;BME280;7902;49.042;9.092;2023-07-20T01:02:51;98915.25;;;24.53;39.79
15604;BME280;7902;49.042;9.092;2023-07-20T01:05:17;98906.97;;;24.55;39.67
15604;BME280;7902;49.042;9.092;2023-07-20T01:10:20;98910.66;;;24.40;40.07
15604;BME280;7902;49.042;9.092;2023-07-20T01:12:53;98910.47;;;24.48;39.92
15604;BME280;7902;49.042;9.092;2023-07-20T01:15:20;98914.38;;;24.33;40.25
15604;BME280;7902;49.042;9.092;2023-07-20T01:17:47;98910.69;;;24.34;40.29
15604;BME280;7902;49.042;9.092;2023-07-20T01:20:14;98906.72;;;24.23;40.00
15604;BME280;7902;49.042;9.092;2023-07-20T01:28:40;98906.91;;;24.22;40.46
15604;BME280;7902;49.042;9.092;2023-07-20T01:31:21;98907.88;;;24.08;40.77
15604;BME280;7902;49.042;9.092;2023-07-20T01:33:50;98901.00;;;23.85;41.41
15604;BME280;7902;49.042;9.092;2023-07-20T01:36:21;98903.16;;;24.10;40.71
15604;BME280;7902;49.042;9.092;2023-07-20T01:38:47;98903.72;;;23.92;41.14
15604;BME280;7902;49.042;9.092;2023-07-20T01:41:14;98909.50;;;23.95;41.29
15604;BME280;7902;49.042;9.092;2023-07-20T01:43:42;98902.31;;;24.16;40.74
15604;BME280;7902;49.042;9.092;2023-07-20T01:46:08;98902.31;;;24.16;40.58
15604;BME280;7902;49.042;9.092;2023-07-20T01:48:34;98906.88;;;24.15;40.52
15604;BME280;7902;49.042;9.092;2023-07-20T01:51:00;98903.38;;;24.15;40.94
15604;BME280;7902;49.042;9.092;2023-07-20T01:53:25;98913.81;;;23.90;41.39
15604;BME280;7902;49.042;9.092;2023-07-20T01:55:55;98916.69;;;23.88;41.11
15604;BME280;7902;49.042;9.092;2023-07-20T01:58:21;98915.22;;;23.79;41.42
15604;BME280;7902;49.042;9.092;2023-07-20T02:00:47;98911.69;;;23.72;41.49
15604;BME280;7902;49.042;9.092;2023-07-20T02:03:13;98915.84;;;23.81;41.31
15604;BME280;7902;49.042;9.092;2023-07-20T02:05:42;98915.00;;;23.81;41.62
15604;BME280;7902;49.042;9.092;2023-07-20T02:08:07;98910.47;;;23.81;41.77
15604;BME280;7902;49.042;9.092;2023-07-20T02:10:34;98909.22;;;23.77;41.67
15604;BME280;7902;49.042;9.092;2023-07-20T02:13:00;98909.47;;;23.82;41.38
15604;BME280;7902;49.042;9.092;2023-07-20T02:15:26;98911.97;;;23.97;41.37
15604;BME280;7902;49.042;9.092;2023-07-20T02:17:53;98908.41;;;23.83;41.59
15604;BME280;7902;49.042;9.092;2023-07-20T02:20:19;98908.88;;;23.87;41.50
15604;BME280;7902;49.042;9.092;2023-07-20T02:22:45;98911.72;;;23.85;41.54
15604;BME280;7902;49.042;9.092;2023-07-20T02:25:11;98914.75;;;23.69;41.98
15604;BME280;7902;49.042;9.092;2023-07-20T02:27:37;98913.53;;;23.72;41.59
15604;BME280;7902;49.042;9.092;2023-07-20T02:30:04;98910.25;;;23.76;41.63
15604;BME280;7902;49.042;9.092;2023-07-20T02:32:30;98914.97;;;23.68;42.05
15604;BME280;7902;49.042;9.092;2023-07-20T02:34:57;98907.06;;;23.53;42.24
15604;BME280;7902;49.042;9.092;2023-07-20T02:37:24;98906.06;;;23.60;42.05
15604;BME280;7902;49.042;9.092;2023-07-20T02:39:50;98912.88;;;23.63;41.75
15604;BME280;7902;49.042;9.092;2023-07-20T02:42:16;98915.31;;;23.58;42.36
15604;BME280;7902;49.042;9.092;2023-07-20T02:44:42;98913.25;;;23.60;42.13
15604;BME280;7902;49.042;9.092;2023-07-20T02:47:08;98914.66;;;23.49;42.28
15604;BME280;7902;49.042;9.092;2023-07-20T02:49:34;98917.22;;;23.36;42.73
15604;BME280;7902;49.042;9.092;2023-07-20T02:52:00;98921.59;;;23.44;42.30
15604;BME280;7902;49.042;9.092;2023-07-20T02:54:26;98918.44;;;23.34;42.48
15604;BME280;7902;49.042;9.092;2023-07-20T02:56:52;98924.66;;;23.34;42.45
15604;BME280;7902;49.042;9.092;2023-07-20T02:59:18;98925.41;;;23.28;42.58
15604;BME280;7902;49.042;9.092;2023-07-20T03:01:44;98929.34;;;23.26;42.89
15604;BME280;7902;49.042;9.092;2023-07-20T03:04:10;98924.06;;;23.39;42.87
15604;BME280;7902;49.042;9.092;2023-07-20T03:06:36;98926.06;;;23.30;42.65
15604;BME280;7902;49.042;9.092;2023-07-20T03:09:03;98933.19;;;23.16;43.32
15604;BME280;7902;49.042;9.092;2023-07-20T03:11:29;98930.72;;;23.22;43.00
15604;BME280;7902;49.042;9.092;2023-07-20T03:13:55;98932.81;;;23.26;43.01
15604;BME280;7902;49.042;9.092;2023-07-20T03:16:23;98931.13;;;23.18;43.08
15604;BME280;7902;49.042;9.092;2023-07-20T03:18:49;98933.31;;;23.08;43.40
15604;BME280;7902;49.042;9.092;2023-07-20T03:21:15;98932.06;;;23.04;43.42
15604;BME280;7902;49.042;9.092;2023-07-20T03:23:41;98931.88;;;23.06;43.28
15604;BME280;7902;49.042;9.092;2023-07-20T03:26:07;98942.38;;;23.07;43.51
15604;BME280;7902;49.042;9.092;2023-07-20T03:28:36;98935.97;;;23.02;43.72
15604;BME280;7902;49.042;9.092;2023-07-20T03:31:03;98942.09;;;22.96;43.69
15604;BME280;7902;49.042;9.092;2023-07-20T03:33:29;98934.88;;;22.96;43.40
15604;BME280;7902;49.042;9.092;2023-07-20T03:35:56;98944.91;;;22.88;43.89
15604;BME280;7902;49.042;9.092;2023-07-20T03:38:23;98946.22;;;22.98;43.77
15604;BME280;7902;49.042;9.092;2023-07-20T03:40:55;98941.06;;;22.97;43.63
15604;BME280;7902;49.042;9.092;2023-07-20T03:43:23;98940.84;;;22.98;43.59
15604;BME280;7902;49.042;9.092;2023-07-20T03:45:50;98942.28;;;22.94;43.68
15604;BME280;7902;49.042;9.092;2023-07-20T03:48:21;98942.22;;;22.88;43.77
15604;BME280;7902;49.042;9.092;2023-07-20T03:50:49;98935.59;;;22.84;43.86
15604;BME280;7902;49.042;9.092;2023-07-20T03:53:15;98942.03;;;22.89;43.76
15604;BME280;7902;49.042;9.092;2023-07-20T03:55:52;98937.72;;;22.88;43.68
15604;BME280;7902;49.042;9.092;2023-07-20T03:58:19;98941.09;;;22.75;44.02
15604;BME280;7902;49.042;9.092;2023-07-20T04:00:46;98946.00;;;22.72;44.35
15604;BME280;7902;49.042;9.092;2023-07-20T04:03:13;98946.53;;;22.67;44.53
15604;BME280;7902;49.042;9.092;2023-07-20T04:05:39;98947.44;;;22.74;44.13
15604;BME280;7902;49.042;9.092;2023-07-20T04:08:05;98943.50;;;22.70;44.41
15604;BME280;7902;49.042;9.092;2023-07-20T04:10:31;98948.72;;;22.57;44.70
15604;BME280;7902;49.042;9.092;2023-07-20T04:12:57;98952.03;;;22.59;44.66
15604;BME280;7902;49.042;9.092;2023-07-20T04:15:23;98950.13;;;22.74;44.72
15604;BME280;7902;49.042;9.092;2023-07-20T04:17:49;98954.22;;;22.70;44.36
15604;BME280;7902;49.042;9.092;2023-07-20T04:20:15;98953.19;;;22.71;44.50
15604;BME280;7902;49.042;9.092;2023-07-20T04:22:40;98957.06;;;22.69;44.57
15604;BME280;7902;49.042;9.092;2023-07-20T04:25:07;98958.91;;;22.68;44.64
15604;BME280;7902;49.042;9.092;2023-07-20T04:27:33;98963.59;;;22.81;44.48
15604;BME280;7902;49.042;9.092;2023-07-20T04:29:59;98965.00;;;22.77;44.93
15604;BME280;7902;49.042;9.092;2023-07-20T04:32:28;98959.81;;;22.75;44.58
15604;BME280;7902;49.042;9.092;2023-07-20T04:34:53;98965.00;;;22.77;44.73
15604;BME280;7902;49.042;9.092;2023-07-20T04:37:19;98951.03;;;22.82;44.37
15604;BME280;7902;49.042;9.092;2023-07-20T04:39:45;98966.34;;;22.88;44.38
15604;BME280;7902;49.042;9.092;2023-07-20T04:42:11;98958.88;;;22.83;44.06
15604;BME280;7902;49.042;9.092;2023-07-20T04:44:37;98957.25;;;22.89;44.36
15604;BME280;7902;49.042;9.092;2023-07-20T04:47:03;98960.91;;;22.81;45.01
15604;BME280;7902;49.042;9.092;2023-07-20T04:49:29;98966.00;;;22.97;44.37
15604;BME280;7902;49.042;9.092;2023-07-20T04:51:55;98957.91;;;22.91;44.84
15604;BME280;7902;49.042;9.092;2023-07-20T04:54:21;98960.66;;;22.97;44.58
15604;BME280;7902;49.042;9.092;2023-07-20T04:56:47;98961.50;;;23.04;44.68
15604;BME280;7902;49.042;9.092;2023-07-20T04:59:13;98957.81;;;23.05;44.52
15604;BME280;7902;49.042;9.092;2023-07-20T05:01:39;98960.31;;;23.07;44.50
15604;BME280;7902;49.042;9.092;2023-07-20T05:04:05;98964.19;;;23.04;44.40
15604;BME280;7902;49.042;9.092;2023-07-20T05:06:31;98960.84;;;22.96;44.41
15604;BME280;7902;49.042;9.092;2023-07-20T05:08:57;98959.34;;;23.14;44.33
15604;BME280;7902;49.042;9.092;2023-07-20T05:11:23;98967.38;;;23.14;44.29
15604;BME280;7902;49.042;9.092;2023-07-20T05:13:49;98973.91;;;23.12;44.17
15604;BME280;7902;49.042;9.092;2023-07-20T05:16:15;98968.13;;;23.08;44.70
15604;BME280;7902;49.042;9.092;2023-07-20T05:18:41;98954.25;;;23.26;44.20
15604;BME280;7902;49.042;9.092;2023-07-20T05:21:07;98961.72;;;23.31;43.87
15604;BME280;7902;49.042;9.092;2023-07-20T05:23:33;98962.19;;;23.41;43.84
15604;BME280;7902;49.042;9.092;2023-07-20T05:25:59;98962.59;;;23.38;44.09
15604;BME280;7902;49.042;9.092;2023-07-20T05:28:26;98966.69;;;23.34;44.19
15604;BME280;7902;49.042;9.092;2023-07-20T05:30:52;98963.94;;;23.48;43.87
15604;BME280;7902;49.042;9.092;2023-07-20T05:33:20;98965.19;;;23.52;43.59
15604;BME280;7902;49.042;9.092;2023-07-20T05:35:46;98960.00;;;23.51;43.78
15604;BME280;7902;49.042;9.092;2023-07-20T05:38:12;98960.56;;;23.40;44.27
15604;BME280;7902;49.042;9.092;2023-07-20T05:40:40;98965.06;;;23.39;43.89
15604;BME280;7902;49.042;9.092;2023-07-20T05:43:07;98966.22;;;23.51;43.89
15604;BME280;7902;49.042;9.092;2023-07-20T05:45:33;98970.56;;;23.59;43.55
15604;BME280;7902;49.042;9.092;2023-07-20T05:47:59;98963.56;;;23.58;43.49
15604;BME280;7902;49.042;9.092;2023-07-20T05:50:25;98966.72;;;23.68;43.01
15604;BME280;7902;49.042;9.092;2023-07-20T05:52:53;98964.50;;;23.78;43.25
15604;BME280;7902;49.042;9.092;2023-07-20T05:55:19;98961.66;;;23.86;42.94
15604;BME280;7902;49.042;9.092;2023-07-20T05:57:45;98956.69;;;23.83;43.23
15604;BME280;7902;49.042;9.092;2023-07-20T06:00:11;98953.41;;;23.88;42.81
15604;BME280;7902;49.042;9.092;2023-07-20T06:02:38;98959.41;;;23.90;43.21
15604;BME280;7902;49.042;9.092;2023-07-20T06:05:06;98956.50;;;23.85;42.94
15604;BME280;7902;49.042;9.092;2023-07-20T06:07:36;98960.47;;;24.02;42.94
15604;BME280;7902;49.042;9.092;2023-07-20T06:10:02;98960.88;;;23.99;43.29
15604;BME280;7902;49.042;9.092;2023-07-20T06:12:28;98967.31;;;24.04;42.90
15604;BME280;7902;49.042;9.092;2023-07-20T06:14:54;98960.47;;;23.95;43.27
15604;BME280;7902;49.042;9.092;2023-07-20T06:17:20;98968.97;;;24.05;43.37
15604;BME280;7902;49.042;9.092;2023-07-20T06:19:46;98973.28;;;24.06;42.89
15604;BME280;7902;49.042;9.092;2023-07-20T06:22:12;98974.53;;;24.04;43.07
15604;BME280;7902;49.042;9.092;2023-07-20T06:24:38;98970.22;;;24.10;43.26
15604;BME280;7902;49.042;9.092;2023-07-20T06:27:04;98973.28;;;24.06;43.62
15604;BME280;7902;49.042;9.092;2023-07-20T06:29:31;98966.06;;;24.07;43.58
15604;BME280;7902;49.042;9.092;2023-07-20T06:31:57;98965.56;;;24.25;42.86
15604;BME280;7902;49.042;9.092;2023-07-20T06:34:23;98963.53;;;24.33;43.07
15604;BME280;7902;49.042;9.092;2023-07-20T06:36:49;98968.22;;;24.18;43.59
15604;BME280;7902;49.042;9.092;2023-07-20T06:39:15;98968.63;;;24.22;43.41
15604;BME280;7902;49.042;9.092;2023-07-20T06:41:41;98961.03;;;24.32;42.91
15604;BME280;7902;49.042;9.092;2023-07-20T06:44:07;98963.94;;;24.37;42.87
15604;BME280;7902;49.042;9.092;2023-07-20T06:46:33;98972.59;;;24.32;42.98
15604;BME280;7902;49.042;9.092;2023-07-20T06:48:59;98973.44;;;24.33;42.79
15604;BME280;7902;49.042;9.092;2023-07-20T06:51:25;98968.88;;;24.33;43.12
15604;BME280;7902;49.042;9.092;2023-07-20T06:53:51;98979.59;;;24.27;43.39
15604;BME280;7902;49.042;9.092;2023-07-20T06:56:17;98975.91;;;24.41;43.23
15604;BME280;7902;49.042;9.092;2023-07-20T06:58:43;98968.97;;;24.66;42.26
15604;BME280;7902;49.042;9.092;2023-07-20T07:01:09;98973.47;;;24.53;42.64
15604;BME280;7902;49.042;9.092;2023-07-20T07:03:35;98967.66;;;24.36;42.79
15604;BME280;7902;49.042;9.092;2023-07-20T07:06:00;98968.06;;;24.33;43.31
15604;BME280;7902;49.042;9.092;2023-07-20T07:08:26;98970.09;;;24.31;43.63
15604;BME280;7902;49.042;9.092;2023-07-20T07:10:52;98966.06;;;24.61;42.86
15604;BME280;7902;49.042;9.092;2023-07-20T07:13:19;98968.28;;;24.38;43.36
15604;BME280;7902;49.042;9.092;2023-07-20T07:15:45;98966.44;;;24.58;43.31
15604;BME280;7902;49.042;9.092;2023-07-20T07:18:11;98974.50;;;24.58;43.43
15604;BME280;7902;49.042;9.092;2023-07-20T07:20:37;98967.94;;;24.74;43.24
15604;BME280;7902;49.042;9.092;2023-07-20T07:23:03;98966.47;;;24.78;42.72
15604;BME280;7902;49.042;9.092;2023-07-20T07:25:29;98957.00;;;24.75;42.81
15604;BME280;7902;49.042;9.092;2023-07-20T07:27:57;98967.31;;;24.85;42.83
15604;BME280;7902;49.042;9.092;2023-07-20T07:30:23;98960.94;;;24.92;42.43
15604;BME280;7902;49.042;9.092;2023-07-20T07:32:49;98959.72;;;24.95;42.94
15604;BME280;7902;49.042;9.092;2023-07-20T07:35:15;98961.16;;;25.04;42.56
15604;BME280;7902;49.042;9.092;2023-07-20T07:37:40;98955.34;;;25.01;42.92
15604;BME280;7902;49.042;9.092;2023-07-20T07:40:07;98962.38;;;25.02;42.67
15604;BME280;7902;49.042;9.092;2023-07-20T07:42:33;98960.34;;;25.04;42.78
15604;BME280;7902;49.042;9.092;2023-07-20T07:44:59;98959.09;;;25.13;42.71
15604;BME280;7902;49.042;9.092;2023-07-20T07:47:25;98954.53;;;25.20;42.56
15604;BME280;7902;49.042;9.092;2023-07-20T07:49:51;98951.63;;;25.15;42.63
15604;BME280;7902;49.042;9.092;2023-07-20T07:52:17;98964.25;;;25.21;42.28
15604;BME280;7902;49.042;9.092;2023-07-20T07:54:43;98957.22;;;25.07;42.58
15604;BME280;7902;49.042;9.092;2023-07-20T07:57:09;98958.66;;;25.29;42.25
15604;BME280;7902;49.042;9.092;2023-07-20T07:59:35;98957.41;;;25.25;42.51
15604;BME280;7902;49.042;9.092;2023-07-20T08:02:06;98961.97;;;25.31;42.21
15604;BME280;7902;49.042;9.092;2023-07-20T08:04:32;98965.06;;;25.28;41.83
15604;BME280;7902;49.042;9.092;2023-07-20T08:06:59;98954.53;;;25.20;41.85
15604;BME280;7902;49.042;9.092;2023-07-20T08:09:25;98954.53;;;25.26;42.05
15604;BME280;7902;49.042;9.092;2023-07-20T08:11:51;98956.59;;;25.11;42.19
15604;BME280;7902;49.042;9.092;2023-07-20T08:14:17;98961.75;;;25.19;41.95
15604;BME280;7902;49.042;9.092;2023-07-20T08:16:43;98960.72;;;25.27;41.80
15604;BME280;7902;49.042;9.092;2023-07-20T08:19:09;98963.66;;;25.19;41.94
15604;BME280;7902;49.042;9.092;2023-07-20T08:21:35;98963.84;;;25.17;42.00
15604;BME280;7902;49.042;9.092;2023-07-20T08:24:01;98953.91;;;25.38;41.50
15604;BME280;7902;49.042;9.092;2023-07-20T08:26:27;98958.44;;;25.24;41.08
15604;BME280;7902;49.042;9.092;2023-07-20T08:28:53;98964.06;;;25.03;40.98
15604;BME280;7902;49.042;9.092;2023-07-20T08:31:19;98960.53;;;25.22;40.90
15604;BME280;7902;49.042;9.092;2023-07-20T08:33:46;98952.47;;;25.22;41.39
15604;BME280;7902;49.042;9.092;2023-07-20T08:36:11;98951.44;;;25.23;41.55
15604;BME280;7902;49.042;9.092;2023-07-20T08:38:37;98953.91;;;25.31;40.60
15604;BME280;7902;49.042;9.092;2023-07-20T08:41:03;98957.41;;;25.31;40.56
15604;BME280;7902;49.042;9.092;2023-07-20T08:43:30;98947.25;;;25.33;40.36
15604;BME280;7902;49.042;9.092;2023-07-20T08:45:56;98950.38;;;25.24;40.42
15604;BME280;7902;49.042;9.092;2023-07-20T08:48:24;98954.06;;;25.43;40.18
15604;BME280;7902;49.042;9.092;2023-07-20T08:50:52;98961.53;;;25.47;39.22
15604;BME280;7902;49.042;9.092;2023-07-20T08:53:21;98957.19;;;25.59;39.20
15604;BME280;7902;49.042;9.092;2023-07-20T08:55:50;98959.88;;;25.46;40.49
15604;BME280;7902;49.042;9.092;2023-07-20T08:58:17;98947.03;;;25.48;38.87
15604;BME280;7902;49.042;9.092;2023-07-20T09:00:44;98945.81;;;25.44;38.97
15604;BME280;7902;49.042;9.092;2023-07-20T09:03:10;98951.63;;;25.41;39.41
15604;BME280;7902;49.042;9.092;2023-07-20T09:05:37;98950.16;;;25.58;39.10
15604;BME280;7902;49.042;9.092;2023-07-20T09:08:03;98961.09;;;25.57;39.83
15604;BME280;7902;49.042;9.092;2023-07-20T09:10:29;98953.03;;;25.63;40.11
15604;BME280;7902;49.042;9.092;2023-07-20T09:12:55;98949.91;;;25.66;39.94
15604;BME280;7902;49.042;9.092;2023-07-20T09:15:22;98952.16;;;25.83;39.69
15604;BME280;7902;49.042;9.092;2023-07-20T09:17:49;98944.47;;;25.93;39.85
15604;BME280;7902;49.042;9.092;2023-07-20T09:20:17;98946.97;;;25.88;38.48
15604;BME280;7902;49.042;9.092;2023-07-20T09:22:44;98947.59;;;25.90;39.08
15604;BME280;7902;49.042;9.092;2023-07-20T09:25:13;98947.34;;;25.91;39.24
15604;BME280;7902;49.042;9.092;2023-07-20T09:27:41;98950.44;;;25.95;38.89
15604;BME280;7902;49.042;9.092;2023-07-20T09:30:09;98946.47;;;26.04;39.09
15604;BME280;7902;49.042;9.092;2023-07-20T09:32:43;98939.25;;;25.98;39.21
15604;BME280;7902;49.042;9.092;2023-07-20T09:35:24;98947.59;;;25.90;38.18
15604;BME280;7902;49.042;9.092;2023-07-20T09:40:19;98949.00;;;25.99;37.54
15604;BME280;7902;49.042;9.092;2023-07-20T09:42:46;98952.72;;;25.98;36.76
15604;BME280;7902;49.042;9.092;2023-07-20T09:45:12;98948.81;;;25.94;37.90
15604;BME280;7902;49.042;9.092;2023-07-20T09:47:39;98951.06;;;25.97;38.44
15604;BME280;7902;49.042;9.092;2023-07-20T09:50:06;98948.94;;;26.12;38.10
15604;BME280;7902;49.042;9.092;2023-07-20T09:52:42;98945.34;;;26.18;37.95
15604;BME280;7902;49.042;9.092;2023-07-20T09:55:10;98944.31;;;26.19;37.87
15604;BME280;7902;49.042;9.092;2023-07-20T09:57:38;98953.28;;;26.13;36.66
15604;BME280;7902;49.042;9.092;2023-07-20T10:00:06;98951.63;;;26.05;36.31
15604;BME280;7902;49.042;9.092;2023-07-20T10:02:44;98947.00;;;26.19;35.73
15604;BME280;7902;49.042;9.092;2023-07-20T10:05:14;98938.56;;;26.09;36.79
15604;BME280;7902;49.042;9.092;2023-07-20T10:07:47;98941.88;;;26.17;37.39
15604;BME280;7902;49.042;9.092;2023-07-20T10:10:15;98943.94;;;26.15;36.76
15604;BME280;7902;49.042;9.092;2023-07-20T10:12:44;98947.03;;;26.26;36.63
15604;BME280;7902;49.042;9.092;2023-07-20T10:15:24;98938.31;;;26.24;37.26
15604;BME280;7902;49.042;9.092;2023-07-20T10:20:39;98948.09;;;26.11;36.91
15604;BME280;7902;49.042;9.092;2023-07-20T10:23:07;98944.31;;;26.19;36.70
15604;BME280;7902;49.042;9.092;2023-07-20T10:25:33;98934.56;;;26.31;36.90
15604;BME280;7902;49.042;9.092;2023-07-20T10:28:06;98939.00;;;26.06;37.18
15604;BME280;7902;49.042;9.092;2023-07-20T10:30:34;98937.50;;;26.23;36.95
15604;BME280;7902;49.042;9.092;2023-07-20T10:33:04;98932.88;;;26.37;36.60
15604;BME280;7902;49.042;9.092;2023-07-20T10:35:30;98926.06;;;26.34;35.44
15604;BME280;7902;49.042;9.092;2023-07-20T10:38:00;98934.34;;;26.33;36.01
15604;BME280;7902;49.042;9.092;2023-07-20T10:42:57;98921.78;;;26.51;37.03
15604;BME280;7902;49.042;9.092;2023-07-20T10:45:34;98927.97;;;26.58;36.69
15604;BME280;7902;49.042;9.092;2023-07-20T10:50:40;98909.56;;;26.55;36.90
15604;BME280;7902;49.042;9.092;2023-07-20T10:53:17;98914.72;;;26.57;37.51
15604;BME280;7902;49.042;9.092;2023-07-20T10:55:43;98915.00;;;26.42;37.24
15604;BME280;7902;49.042;9.092;2023-07-20T10:58:14;98914.78;;;26.50;36.11
15604;BME280;7902;49.042;9.092;2023-07-20T11:01:02;98909.78;;;26.54;35.47
15604;BME280;7902;49.042;9.092;2023-07-20T11:03:30;98915.63;;;26.44;35.77
15604;BME280;7902;49.042;9.092;2023-07-20T11:05:57;98915.28;;;26.34;36.85
15604;BME280;7902;49.042;9.092;2023-07-20T11:08:43;98919.56;;;26.42;36.26
15604;BME280;7902;49.042;9.092;2023-07-20T11:11:33;98909.44;;;26.44;36.03
15604;BME280;7902;49.042;9.092;2023-07-20T11:14:04;98911.38;;;26.30;35.95
15604;BME280;7902;49.042;9.092;2023-07-20T11:19:03;98896.78;;;26.44;35.61
15604;BME280;7902;49.042;9.092;2023-07-20T11:21:37;98899.03;;;26.47;35.87
15604;BME280;7902;49.042;9.092;2023-07-20T11:24:05;98913.53;;;26.46;36.02
15604;BME280;7902;49.042;9.092;2023-07-20T11:26:39;98901.88;;;26.59;35.91
15604;BME280;7902;49.042;9.092;2023-07-20T11:29:05;98901.06;;;26.52;36.05
15604;BME280;7902;49.042;9.092;2023-07-20T11:31:35;98897.31;;;26.59;36.35
15604;BME280;7902;49.042;9.092;2023-07-20T11:34:01;98884.19;;;26.70;37.29
15604;BME280;7902;49.042;9.092;2023-07-20T11:36:27;98894.50;;;26.73;36.36
15604;BME280;7902;49.042;9.092;2023-07-20T11:38:53;98885.72;;;26.84;35.11
15604;BME280;7902;49.042;9.092;2023-07-20T11:41:19;98885.94;;;26.82;35.79
15604;BME280;7902;49.042;9.092;2023-07-20T11:43:45;98886.22;;;26.74;37.06
15604;BME280;7902;49.042;9.092;2023-07-20T11:46:11;98884.63;;;26.91;35.90
15604;BME280;7902;49.042;9.092;2023-07-20T11:48:37;98885.88;;;26.89;34.71
15604;BME280;7902;49.042;9.092;2023-07-20T11:51:03;98883.59;;;26.92;34.25
15604;BME280;7902;49.042;9.092;2023-07-20T11:53:29;98884.34;;;26.99;33.99
15604;BME280;7902;49.042;9.092;2023-07-20T11:55:55;98886.06;;;26.94;33.40
15604;BME280;7902;49.042;9.092;2023-07-20T11:58:21;98879.25;;;26.85;34.49
15604;BME280;7902;49.042;9.092;2023-07-20T12:00:47;98874.94;;;26.84;33.67
15604;BME280;7902;49.042;9.092;2023-07-20T12:03:13;98873.03;;;26.91;34.75
15604;BME280;7902;49.042;9.092;2023-07-20T12:05:39;98861.44;;;27.08;34.97
15604;BME280;7902;49.042;9.092;2023-07-20T12:08:05;98863.88;;;27.17;35.58
15604;BME280;7902;49.042;9.092;2023-07-20T12:10:31;98864.75;;;27.29;33.55
15604;BME280;7902;49.042;9.092;2023-07-20T12:13:03;98856.66;;;27.11;33.46
15604;BME280;7902;49.042;9.092;2023-07-20T12:15:29;98850.75;;;27.20;33.40
15604;BME280;7902;49.042;9.092;2023-07-20T12:17:57;98857.50;;;27.11;33.82
15604;BME280;7902;49.042;9.092;2023-07-20T12:20:35;98853.47;;;27.20;33.75
15604;BME280;7902;49.042;9.092;2023-07-20T12:23:07;98850.00;;;27.13;33.74
15604;BME280;7902;49.042;9.092;2023-07-20T12:25:37;98849.94;;;27.20;33.07
15604;BME280;7902;49.042;9.092;2023-07-20T12:28:09;98841.13;;;27.31;34.56
15604;BME280;7902;49.042;9.092;2023-07-20T12:30:36;98847.75;;;27.28;34.76
15604;BME280;7902;49.042;9.092;2023-07-20T12:33:03;98845.16;;;27.40;34.00
15604;BME280;7902;49.042;9.092;2023-07-20T12:35:30;98835.16;;;27.40;33.83
15604;BME280;7902;49.042;9.092;2023-07-20T12:37:57;98829.16;;;27.75;33.25
15604;BME280;7902;49.042;9.092;2023-07-20T12:40:23;98832.34;;;27.72;31.52
15604;BME280;7902;49.042;9.092;2023-07-20T12:42:49;98827.75;;;27.72;32.76
15604;BME280;7902;49.042;9.092;2023-07-20T12:45:15;98829.56;;;27.60;32.76
15604;BME280;7902;49.042;9.092;2023-07-20T12:47:41;98820.50;;;27.73;34.60
15604;BME280;7902;49.042;9.092;2023-07-20T12:50:10;98818.69;;;27.67;32.73
15604;BME280;7902;49.042;9.092;2023-07-20T12:52:37;98812.16;;;27.74;32.35
15604;BME280;7902;49.042;9.092;2023-07-20T12:55:05;98820.72;;;27.71;33.56
15604;BME280;7902;49.042;9.092;2023-07-20T12:57:33;98814.41;;;27.77;32.12
15604;BME280;7902;49.042;9.092;2023-07-20T12:59:59;98806.47;;;27.82;32.92
15604;BME280;7902;49.042;9.092;2023-07-20T13:02:25;98812.00;;;27.69;34.09
15604;BME280;7902;49.042;9.092;2023-07-20T13:04:51;98811.66;;;27.66;33.04
15604;BME280;7902;49.042;9.092;2023-07-20T13:07:29;98810.31;;;27.57;33.08
15604;BME280;7902;49.042;9.092;2023-07-20T13:09:55;98804.44;;;27.78;31.92
15604;BME280;7902;49.042;9.092;2023-07-20T13:12:21;98797.03;;;27.73;32.19
15604;BME280;7902;49.042;9.092;2023-07-20T13:14:47;98792.44;;;27.74;32.92
15604;BME280;7902;49.042;9.092;2023-07-20T13:17:13;98795.53;;;27.77;32.51
15604;BME280;7902;49.042;9.092;2023-07-20T13:19:38;98798.66;;;27.74;33.27
15604;BME280;7902;49.042;9.092;2023-07-20T13:22:04;98797.59;;;27.64;33.09
15604;BME280;7902;49.042;9.092;2023-07-20T13:24:30;98799.22;;;27.65;34.21
15604;BME280;7902;49.042;9.092;2023-07-20T13:26:56;98795.38;;;27.72;32.76
15604;BME280;7902;49.042;9.092;2023-07-20T13:29:23;98798.66;;;27.74;33.85
15604;BME280;7902;49.042;9.092;2023-07-20T13:31:49;98786.75;;;27.82;32.98